< < Back
Terminal Aerodrome Forecast


Current Version              Previous Versions:   1  2  3  4  5  6  7  8  9  

Terminal Aerodrome Forecast

825
FTUS44 KBMX 041731
TAFTCL
TAF
KTCL 041731Z 0418/0518 31010G18KT P6SM SCT050
     FM042000 29014G22KT P6SM SCT050
     FM050000 29014G22KT P6SM VCSH BKN050
     FM050300 31010G18KT P6SM FEW050=

Latest METAR

311
SAUS70 KWBC 051756
MTRTCL
METAR KTCL 051753Z 31016G25KT 10SM FEW070 21/03 A2989 RMK AO2 SLP119
T02110033 10211 20100 58015


USA.gov is the U.S. government's official web portal to all federal, state and local government web resources and services.